sensor_id;sensor_type;location;lat;lon;timestamp;P1;durP1;ratioP1;P2;durP2;ratioP2
17504;SDS011;8870;50.950;11.762;2022-08-19T00:05:08;13.93;;;12.48;;
17504;SDS011;8870;50.950;11.762;2022-08-19T00:10:15;15.27;;;12.80;;
17504;SDS011;8870;50.950;11.762;2022-08-19T00:15:22;18.17;;;13.05;;
17504;SDS011;8870;50.950;11.762;2022-08-19T00:20:30;16.55;;;14.85;;
17504;SDS011;8870;50.950;11.762;2022-08-19T00:25:35;19.63;;;14.48;;
17504;SDS011;8870;50.950;11.762;2022-08-19T00:30:40;13.93;;;12.45;;
17504;SDS011;8870;50.950;11.762;2022-08-19T00:35:47;15.63;;;13.57;;
17504;SDS011;8870;50.950;11.762;2022-08-19T00:40:56;14.80;;;13.32;;
17504;SDS011;8870;50.950;11.762;2022-08-19T00:46:01;13.68;;;12.30;;
17504;SDS011;8870;50.950;11.762;2022-08-19T00:51:09;15.35;;;13.30;;
17504;SDS011;8870;50.950;11.762;2022-08-19T00:56:13;14.10;;;12.65;;
17504;SDS011;8870;50.950;11.762;2022-08-19T01:01:18;14.80;;;12.43;;
17504;SDS011;8870;50.950;11.762;2022-08-19T01:06:26;11.68;;;10.50;;
17504;SDS011;8870;50.950;11.762;2022-08-19T01:11:33;12.82;;;11.52;;
17504;SDS011;8870;50.950;11.762;2022-08-19T01:16:43;12.90;;;11.33;;
17504;SDS011;8870;50.950;11.762;2022-08-19T01:21:53;11.65;;;10.45;;
17504;SDS011;8870;50.950;11.762;2022-08-19T01:27:17;15.63;;;13.98;;
17504;SDS011;8870;50.950;11.762;2022-08-19T01:32:23;19.63;;;16.67;;
17504;SDS011;8870;50.950;11.762;2022-08-19T01:37:41;17.50;;;15.43;;
17504;SDS011;8870;50.950;11.762;2022-08-19T01:42:49;21.33;;;18.70;;
17504;SDS011;8870;50.950;11.762;2022-08-19T01:47:56;22.08;;;17.80;;
17504;SDS011;8870;50.950;11.762;2022-08-19T01:53:04;17.33;;;15.50;;
17504;SDS011;8870;50.950;11.762;2022-08-19T01:58:15;15.95;;;14.13;;
17504;SDS011;8870;50.950;11.762;2022-08-19T02:03:25;16.52;;;14.73;;
17504;SDS011;8870;50.950;11.762;2022-08-19T02:08:30;15.32;;;12.68;;
17504;SDS011;8870;50.950;11.762;2022-08-19T02:13:39;14.20;;;12.80;;
17504;SDS011;8870;50.950;11.762;2022-08-19T02:18:44;16.55;;;14.85;;
17504;SDS011;8870;50.950;11.762;2022-08-19T02:23:50;17.73;;;15.77;;
17504;SDS011;8870;50.950;11.762;2022-08-19T02:28:58;19.88;;;16.05;;
17504;SDS011;8870;50.950;11.762;2022-08-19T02:34:02;20.02;;;16.77;;
17504;SDS011;8870;50.950;11.762;2022-08-19T02:39:07;20.27;;;16.75;;
17504;SDS011;8870;50.950;11.762;2022-08-19T02:44:14;18.48;;;16.42;;
17504;SDS011;8870;50.950;11.762;2022-08-19T02:49:31;17.70;;;15.77;;
17504;SDS011;8870;50.950;11.762;2022-08-19T02:54:36;16.65;;;14.75;;
17504;SDS011;8870;50.950;11.762;2022-08-19T02:59:43;16.27;;;14.25;;
17504;SDS011;8870;50.950;11.762;2022-08-19T03:04:48;16.70;;;13.57;;
17504;SDS011;8870;50.950;11.762;2022-08-19T03:09:54;14.20;;;12.52;;
17504;SDS011;8870;50.950;11.762;2022-08-19T03:15:02;13.50;;;12.20;;
17504;SDS011;8870;50.950;11.762;2022-08-19T03:20:09;14.38;;;12.80;;
17504;SDS011;8870;50.950;11.762;2022-08-19T03:25:14;14.98;;;13.30;;
17504;SDS011;8870;50.950;11.762;2022-08-19T03:30:22;15.40;;;13.73;;
17504;SDS011;8870;50.950;11.762;2022-08-19T03:35:27;15.95;;;14.25;;
17504;SDS011;8870;50.950;11.762;2022-08-19T03:40:32;15.18;;;13.57;;
17504;SDS011;8870;50.950;11.762;2022-08-19T03:45:43;14.93;;;13.43;;
17504;SDS011;8870;50.950;11.762;2022-08-19T03:50:48;15.48;;;13.77;;
17504;SDS011;8870;50.950;11.762;2022-08-19T03:55:53;15.32;;;13.70;;
17504;SDS011;8870;50.950;11.762;2022-08-19T04:01:01;15.90;;;13.65;;
17504;SDS011;8870;50.950;11.762;2022-08-19T04:06:10;16.98;;;13.38;;
17504;SDS011;8870;50.950;11.762;2022-08-19T04:11:17;15.02;;;13.50;;
17504;SDS011;8870;50.950;11.762;2022-08-19T04:16:47;15.82;;;13.98;;
17504;SDS011;8870;50.950;11.762;2022-08-19T04:21:53;18.33;;;15.25;;
17504;SDS011;8870;50.950;11.762;2022-08-19T04:26:58;18.80;;;16.05;;
17504;SDS011;8870;50.950;11.762;2022-08-19T04:32:06;18.42;;;16.42;;
17504;SDS011;8870;50.950;11.762;2022-08-19T04:37:11;20.05;;;17.38;;
17504;SDS011;8870;50.950;11.762;2022-08-19T04:42:16;19.88;;;17.27;;
17504;SDS011;8870;50.950;11.762;2022-08-19T04:47:37;17.55;;;15.75;;
17504;SDS011;8870;50.950;11.762;2022-08-19T04:52:52;17.25;;;15.35;;
17504;SDS011;8870;50.950;11.762;2022-08-19T04:57:57;18.35;;;16.35;;
17504;SDS011;8870;50.950;11.762;2022-08-19T05:03:05;18.90;;;16.90;;
17504;SDS011;8870;50.950;11.762;2022-08-19T05:08:18;19.67;;;16.50;;
17504;SDS011;8870;50.950;11.762;2022-08-19T05:18:47;21.20;;;17.10;;
17504;SDS011;8870;50.950;11.762;2022-08-19T05:24:04;17.50;;;15.48;;
17504;SDS011;8870;50.950;11.762;2022-08-19T05:29:11;20.60;;;17.92;;
17504;SDS011;8870;50.950;11.762;2022-08-19T05:34:21;19.60;;;17.58;;
17504;SDS011;8870;50.950;11.762;2022-08-19T05:39:28;18.38;;;16.45;;
17504;SDS011;8870;50.950;11.762;2022-08-19T05:44:37;21.58;;;17.27;;
17504;SDS011;8870;50.950;11.762;2022-08-19T05:54:53;18.67;;;16.77;;
17504;SDS011;8870;50.950;11.762;2022-08-19T05:59:58;18.45;;;16.17;;
17504;SDS011;8870;50.950;11.762;2022-08-19T06:05:14;19.42;;;17.20;;
17504;SDS011;8870;50.950;11.762;2022-08-19T06:10:19;19.60;;;17.50;;
17504;SDS011;8870;50.950;11.762;2022-08-19T06:15:24;20.83;;;17.33;;
17504;SDS011;8870;50.950;11.762;2022-08-19T06:20:32;19.75;;;16.98;;
17504;SDS011;8870;50.950;11.762;2022-08-19T06:25:56;19.65;;;16.70;;
17504;SDS011;8870;50.950;11.762;2022-08-19T06:31:05;19.50;;;17.13;;
17504;SDS011;8870;50.950;11.762;2022-08-19T06:36:18;18.50;;;16.05;;
17504;SDS011;8870;50.950;11.762;2022-08-19T06:41:28;16.77;;;14.52;;
17504;SDS011;8870;50.950;11.762;2022-08-19T06:46:35;17.02;;;15.27;;
17504;SDS011;8870;50.950;11.762;2022-08-19T06:51:43;16.65;;;14.73;;
17504;SDS011;8870;50.950;11.762;2022-08-19T06:56:52;18.02;;;14.63;;
17504;SDS011;8870;50.950;11.762;2022-08-19T07:01:58;19.50;;;14.82;;
17504;SDS011;8870;50.950;11.762;2022-08-19T07:07:07;21.95;;;15.57;;
17504;SDS011;8870;50.950;11.762;2022-08-19T07:12:21;18.42;;;14.98;;
17504;SDS011;8870;50.950;11.762;2022-08-19T07:17:27;16.77;;;14.35;;
17504;SDS011;8870;50.950;11.762;2022-08-19T07:22:38;15.90;;;14.20;;
17504;SDS011;8870;50.950;11.762;2022-08-19T07:27:43;16.70;;;14.63;;
17504;SDS011;8870;50.950;11.762;2022-08-19T07:32:54;16.45;;;14.73;;
17504;SDS011;8870;50.950;11.762;2022-08-19T07:38:06;15.88;;;14.27;;
17504;SDS011;8870;50.950;11.762;2022-08-19T07:43:11;16.35;;;12.82;;
17504;SDS011;8870;50.950;11.762;2022-08-19T07:48:18;13.68;;;12.27;;
17504;SDS011;8870;50.950;11.762;2022-08-19T07:53:29;14.52;;;12.93;;
17504;SDS011;8870;50.950;11.762;2022-08-19T07:58:41;14.18;;;12.52;;
17504;SDS011;8870;50.950;11.762;2022-08-19T08:03:48;15.30;;;13.32;;
17504;SDS011;8870;50.950;11.762;2022-08-19T08:09:11;14.53;;;11.90;;
17504;SDS011;8870;50.950;11.762;2022-08-19T08:14:22;16.00;;;13.50;;
17504;SDS011;8870;50.950;11.762;2022-08-19T08:19:36;16.10;;;14.40;;
17504;SDS011;8870;50.950;11.762;2022-08-19T08:24:45;16.15;;;14.45;;
17504;SDS011;8870;50.950;11.762;2022-08-19T08:29:50;15.80;;;14.18;;
17504;SDS011;8870;50.950;11.762;2022-08-19T08:34:55;17.98;;;16.08;;
17504;SDS011;8870;50.950;11.762;2022-08-19T08:40:04;18.83;;;15.93;;
17504;SDS011;8870;50.950;11.762;2022-08-19T08:45:14;14.40;;;12.90;;
17504;SDS011;8870;50.950;11.762;2022-08-19T08:50:23;12.23;;;10.40;;
17504;SDS011;8870;50.950;11.762;2022-08-19T08:55:36;9.23;;;8.13;;
17504;SDS011;8870;50.950;11.762;2022-08-19T09:00:44;9.40;;;8.40;;
17504;SDS011;8870;50.950;11.762;2022-08-19T09:05:54;6.45;;;5.50;;
17504;SDS011;8870;50.950;11.762;2022-08-19T09:11:06;6.57;;;5.43;;
17504;SDS011;8870;50.950;11.762;2022-08-19T09:16:39;6.18;;;5.50;;
17504;SDS011;8870;50.950;11.762;2022-08-19T09:21:43;6.25;;;5.65;;
17504;SDS011;8870;50.950;11.762;2022-08-19T09:26:52;7.95;;;6.40;;
17504;SDS011;8870;50.950;11.762;2022-08-19T09:31:57;7.75;;;6.88;;
17504;SDS011;8870;50.950;11.762;2022-08-19T09:37:02;10.35;;;8.05;;
17504;SDS011;8870;50.950;11.762;2022-08-19T09:42:11;9.55;;;8.15;;
17504;SDS011;8870;50.950;11.762;2022-08-19T09:47:30;11.30;;;8.48;;
17504;SDS011;8870;50.950;11.762;2022-08-19T09:52:41;11.63;;;9.43;;
17504;SDS011;8870;50.950;11.762;2022-08-19T09:58:01;12.65;;;8.82;;
17504;SDS011;8870;50.950;11.762;2022-08-19T10:03:06;10.10;;;8.20;;
17504;SDS011;8870;50.950;11.762;2022-08-19T10:08:12;10.35;;;8.07;;
17504;SDS011;8870;50.950;11.762;2022-08-19T10:13:21;5.68;;;5.00;;
17504;SDS011;8870;50.950;11.762;2022-08-19T10:18:28;3.97;;;3.58;;
17504;SDS011;8870;50.950;11.762;2022-08-19T10:23:35;5.38;;;3.20;;
17504;SDS011;8870;50.950;11.762;2022-08-19T10:28:44;3.72;;;3.10;;
17504;SDS011;8870;50.950;11.762;2022-08-19T10:33:49;3.47;;;3.00;;
17504;SDS011;8870;50.950;11.762;2022-08-19T10:39:04;3.38;;;2.60;;
17504;SDS011;8870;50.950;11.762;2022-08-19T10:44:16;2.95;;;2.50;;
17504;SDS011;8870;50.950;11.762;2022-08-19T10:49:22;2.42;;;2.22;;
17504;SDS011;8870;50.950;11.762;2022-08-19T10:54:28;2.38;;;2.17;;
17504;SDS011;8870;50.950;11.762;2022-08-19T10:59:48;3.35;;;2.67;;
17504;SDS011;8870;50.950;11.762;2022-08-19T11:04:52;2.63;;;2.42;;
17504;SDS011;8870;50.950;11.762;2022-08-19T11:10:03;2.90;;;2.60;;
17504;SDS011;8870;50.950;11.762;2022-08-19T11:15:16;3.15;;;2.65;;
17504;SDS011;8870;50.950;11.762;2022-08-19T11:20:21;3.38;;;3.00;;
17504;SDS011;8870;50.950;11.762;2022-08-19T11:25:27;3.95;;;3.10;;
17504;SDS011;8870;50.950;11.762;2022-08-19T11:30:34;2.70;;;2.50;;
17504;SDS011;8870;50.950;11.762;2022-08-19T11:35:41;2.70;;;2.13;;
17504;SDS011;8870;50.950;11.762;2022-08-19T11:40:53;1.98;;;1.73;;
17504;SDS011;8870;50.950;11.762;2022-08-19T11:46:02;2.20;;;1.60;;
17504;SDS011;8870;50.950;11.762;2022-08-19T11:51:09;3.50;;;2.00;;
17504;SDS011;8870;50.950;11.762;2022-08-19T11:56:14;2.63;;;2.17;;
17504;SDS011;8870;50.950;11.762;2022-08-19T12:01:23;6.40;;;2.33;;
17504;SDS011;8870;50.950;11.762;2022-08-19T12:06:30;3.28;;;2.47;;
17504;SDS011;8870;50.950;11.762;2022-08-19T12:11:36;3.65;;;2.63;;
17504;SDS011;8870;50.950;11.762;2022-08-19T12:16:44;3.47;;;2.35;;
17504;SDS011;8870;50.950;11.762;2022-08-19T12:21:54;2.72;;;2.40;;
17504;SDS011;8870;50.950;11.762;2022-08-19T12:27:04;3.05;;;2.15;;
17504;SDS011;8870;50.950;11.762;2022-08-19T12:32:16;3.25;;;2.40;;
17504;SDS011;8870;50.950;11.762;2022-08-19T12:37:20;2.75;;;2.00;;
17504;SDS011;8870;50.950;11.762;2022-08-19T12:42:25;2.90;;;2.40;;
17504;SDS011;8870;50.950;11.762;2022-08-19T12:47:32;3.55;;;2.72;;
17504;SDS011;8870;50.950;11.762;2022-08-19T12:52:48;3.17;;;2.88;;
17504;SDS011;8870;50.950;11.762;2022-08-19T12:57:53;2.60;;;2.40;;
17504;SDS011;8870;50.950;11.762;2022-08-19T13:03:00;3.63;;;2.90;;
17504;SDS011;8870;50.950;11.762;2022-08-19T13:08:05;2.97;;;2.47;;
17504;SDS011;8870;50.950;11.762;2022-08-19T13:13:10;3.92;;;2.20;;
17504;SDS011;8870;50.950;11.762;2022-08-19T13:18:17;3.28;;;2.30;;
17504;SDS011;8870;50.950;11.762;2022-08-19T13:23:23;5.43;;;2.08;;
17504;SDS011;8870;50.950;11.762;2022-08-19T13:28:28;3.22;;;2.55;;
17504;SDS011;8870;50.950;11.762;2022-08-19T13:33:55;2.70;;;2.50;;
17504;SDS011;8870;50.950;11.762;2022-08-19T13:39:00;3.95;;;2.42;;
17504;SDS011;8870;50.950;11.762;2022-08-19T13:44:05;2.53;;;2.30;;
17504;SDS011;8870;50.950;11.762;2022-08-19T13:49:13;3.22;;;2.42;;
17504;SDS011;8870;50.950;11.762;2022-08-19T13:54:24;3.75;;;2.38;;
17504;SDS011;8870;50.950;11.762;2022-08-19T13:59:29;3.40;;;2.50;;
17504;SDS011;8870;50.950;11.762;2022-08-19T14:04:36;2.50;;;2.30;;
17504;SDS011;8870;50.950;11.762;2022-08-19T14:09:42;2.58;;;2.08;;
17504;SDS011;8870;50.950;11.762;2022-08-19T14:14:49;1.80;;;1.70;;
17504;SDS011;8870;50.950;11.762;2022-08-19T14:19:58;1.60;;;1.50;;
17504;SDS011;8870;50.950;11.762;2022-08-19T14:25:12;2.17;;;1.33;;
17504;SDS011;8870;50.950;11.762;2022-08-19T14:35:33;1.20;;;1.10;;
17504;SDS011;8870;50.950;11.762;2022-08-19T14:40:41;1.30;;;1.20;;
17504;SDS011;8870;50.950;11.762;2022-08-19T14:45:47;1.55;;;1.30;;
17504;SDS011;8870;50.950;11.762;2022-08-19T14:50:56;2.65;;;1.30;;
17504;SDS011;8870;50.950;11.762;2022-08-19T14:56:00;2.47;;;1.27;;
17504;SDS011;8870;50.950;11.762;2022-08-19T15:01:05;1.35;;;1.13;;
17504;SDS011;8870;50.950;11.762;2022-08-19T15:06:13;1.60;;;1.10;;
17504;SDS011;8870;50.950;11.762;2022-08-19T15:11:19;2.25;;;1.17;;
17504;SDS011;8870;50.950;11.762;2022-08-19T15:16:29;0.90;;;0.90;;
17504;SDS011;8870;50.950;11.762;2022-08-19T15:21:36;0.93;;;0.80;;
17504;SDS011;8870;50.950;11.762;2022-08-19T15:26:45;2.88;;;0.75;;
17504;SDS011;8870;50.950;11.762;2022-08-19T15:31:49;1.10;;;0.80;;
17504;SDS011;8870;50.950;11.762;2022-08-19T15:37:00;0.98;;;0.80;;
17504;SDS011;8870;50.950;11.762;2022-08-19T15:42:06;1.02;;;0.80;;
17504;SDS011;8870;50.950;11.762;2022-08-19T15:47:18;1.15;;;0.70;;
17504;SDS011;8870;50.950;11.762;2022-08-19T15:52:25;0.80;;;0.70;;
17504;SDS011;8870;50.950;11.762;2022-08-19T15:57:30;1.20;;;0.70;;
17504;SDS011;8870;50.950;11.762;2022-08-19T16:02:47;0.55;;;0.50;;
17504;SDS011;8870;50.950;11.762;2022-08-19T16:08:07;0.57;;;0.57;;
17504;SDS011;8870;50.950;11.762;2022-08-19T16:13:12;3.30;;;0.55;;
17504;SDS011;8870;50.950;11.762;2022-08-19T16:18:16;1.77;;;0.52;;
17504;SDS011;8870;50.950;11.762;2022-08-19T16:23:24;0.65;;;0.65;;
17504;SDS011;8870;50.950;11.762;2022-08-19T16:28:29;1.08;;;0.68;;
17504;SDS011;8870;50.950;11.762;2022-08-19T16:33:34;0.75;;;0.60;;
17504;SDS011;8870;50.950;11.762;2022-08-19T16:38:41;0.73;;;0.60;;
17504;SDS011;8870;50.950;11.762;2022-08-19T16:43:47;0.88;;;0.80;;
17504;SDS011;8870;50.950;11.762;2022-08-19T16:48:55;1.10;;;0.80;;
17504;SDS011;8870;50.950;11.762;2022-08-19T17:04:55;1.35;;;0.90;;
17504;SDS011;8870;50.950;11.762;2022-08-19T17:10:00;0.80;;;0.80;;
17504;SDS011;8870;50.950;11.762;2022-08-19T17:15:06;1.20;;;0.85;;
17504;SDS011;8870;50.950;11.762;2022-08-19T17:20:15;0.77;;;0.70;;
17504;SDS011;8870;50.950;11.762;2022-08-19T17:25:19;1.65;;;0.70;;
17504;SDS011;8870;50.950;11.762;2022-08-19T17:30:24;1.38;;;0.80;;
17504;SDS011;8870;50.950;11.762;2022-08-19T17:35:36;0.85;;;0.80;;
17504;SDS011;8870;50.950;11.762;2022-08-19T17:40:44;0.80;;;0.70;;
17504;SDS011;8870;50.950;11.762;2022-08-19T17:45:51;1.73;;;0.82;;
17504;SDS011;8870;50.950;11.762;2022-08-19T17:50:59;1.33;;;0.80;;
17504;SDS011;8870;50.950;11.762;2022-08-19T17:56:04;1.00;;;0.80;;
17504;SDS011;8870;50.950;11.762;2022-08-19T18:01:10;2.92;;;0.90;;
17504;SDS011;8870;50.950;11.762;2022-08-19T18:06:20;1.98;;;0.80;;
17504;SDS011;8870;50.950;11.762;2022-08-19T18:11:24;0.70;;;0.70;;
17504;SDS011;8870;50.950;11.762;2022-08-19T18:16:29;1.42;;;0.80;;
17504;SDS011;8870;50.950;11.762;2022-08-19T18:21:38;0.75;;;0.75;;
17504;SDS011;8870;50.950;11.762;2022-08-19T18:26:42;1.45;;;0.70;;
17504;SDS011;8870;50.950;11.762;2022-08-19T18:31:47;2.42;;;0.80;;
17504;SDS011;8870;50.950;11.762;2022-08-19T18:36:54;1.55;;;0.70;;
17504;SDS011;8870;50.950;11.762;2022-08-19T18:41:59;2.72;;;0.88;;
17504;SDS011;8870;50.950;11.762;2022-08-19T18:47:16;1.08;;;0.80;;
17504;SDS011;8870;50.950;11.762;2022-08-19T18:52:36;2.25;;;0.85;;
17504;SDS011;8870;50.950;11.762;2022-08-19T18:57:41;1.73;;;0.80;;
17504;SDS011;8870;50.950;11.762;2022-08-19T19:02:46;0.90;;;0.75;;
17504;SDS011;8870;50.950;11.762;2022-08-19T19:07:53;0.80;;;0.80;;
17504;SDS011;8870;50.950;11.762;2022-08-19T19:12:57;1.17;;;0.90;;
17504;SDS011;8870;50.950;11.762;2022-08-19T19:18:02;1.92;;;1.08;;
17504;SDS011;8870;50.950;11.762;2022-08-19T19:23:09;1.95;;;1.10;;
17504;SDS011;8870;50.950;11.762;2022-08-19T19:28:14;3.10;;;1.02;;
17504;SDS011;8870;50.950;11.762;2022-08-19T19:33:26;1.10;;;1.00;;
17504;SDS011;8870;50.950;11.762;2022-08-19T19:38:34;2.65;;;1.13;;
17504;SDS011;8870;50.950;11.762;2022-08-19T19:43:39;1.02;;;0.95;;
17504;SDS011;8870;50.950;11.762;2022-08-19T19:48:45;1.90;;;1.15;;
17504;SDS011;8870;50.950;11.762;2022-08-19T19:53:53;1.75;;;1.10;;
17504;SDS011;8870;50.950;11.762;2022-08-19T19:58:58;1.90;;;1.20;;
17504;SDS011;8870;50.950;11.762;2022-08-19T20:04:03;1.60;;;1.50;;
17504;SDS011;8870;50.950;11.762;2022-08-19T20:09:11;1.88;;;1.10;;
17504;SDS011;8870;50.950;11.762;2022-08-19T20:14:21;2.25;;;1.40;;
17504;SDS011;8870;50.950;11.762;2022-08-19T20:19:28;2.17;;;1.27;;
17504;SDS011;8870;50.950;11.762;2022-08-19T20:24:41;4.60;;;1.38;;
17504;SDS011;8870;50.950;11.762;2022-08-19T20:29:45;3.60;;;1.48;;
17504;SDS011;8870;50.950;11.762;2022-08-19T20:34:52;1.27;;;1.10;;
17504;SDS011;8870;50.950;11.762;2022-08-19T20:40:02;4.30;;;1.45;;
17504;SDS011;8870;50.950;11.762;2022-08-19T20:45:11;2.20;;;1.40;;
17504;SDS011;8870;50.950;11.762;2022-08-19T20:50:34;1.48;;;1.30;;
17504;SDS011;8870;50.950;11.762;2022-08-19T20:55:44;3.03;;;1.40;;
17504;SDS011;8870;50.950;11.762;2022-08-19T21:00:51;1.88;;;1.30;;
17504;SDS011;8870;50.950;11.762;2022-08-19T21:05:57;2.78;;;1.48;;
17504;SDS011;8870;50.950;11.762;2022-08-19T21:11:05;2.30;;;1.60;;
17504;SDS011;8870;50.950;11.762;2022-08-19T21:16:10;2.47;;;1.70;;
17504;SDS011;8870;50.950;11.762;2022-08-19T21:21:15;2.30;;;1.70;;
17504;SDS011;8870;50.950;11.762;2022-08-19T21:26:23;2.00;;;1.80;;
17504;SDS011;8870;50.950;11.762;2022-08-19T21:31:27;2.63;;;1.70;;
17504;SDS011;8870;50.950;11.762;2022-08-19T21:36:32;2.83;;;1.95;;
17504;SDS011;8870;50.950;11.762;2022-08-19T21:41:40;2.72;;;1.80;;
17504;SDS011;8870;50.950;11.762;2022-08-19T21:46:45;4.43;;;1.90;;
17504;SDS011;8870;50.950;11.762;2022-08-19T21:51:54;2.33;;;2.05;;
17504;SDS011;8870;50.950;11.762;2022-08-19T21:57:01;3.10;;;2.20;;
17504;SDS011;8870;50.950;11.762;2022-08-19T22:02:11;4.03;;;2.28;;
17504;SDS011;8870;50.950;11.762;2022-08-19T22:07:22;2.78;;;2.30;;
17504;SDS011;8870;50.950;11.762;2022-08-19T22:12:31;3.53;;;2.47;;
17504;SDS011;8870;50.950;11.762;2022-08-19T22:17:38;2.95;;;2.50;;
17504;SDS011;8870;50.950;11.762;2022-08-19T22:22:44;5.10;;;2.20;;
17504;SDS011;8870;50.950;11.762;2022-08-19T22:27:53;2.55;;;2.30;;
17504;SDS011;8870;50.950;11.762;2022-08-19T22:33:03;2.88;;;2.50;;
17504;SDS011;8870;50.950;11.762;2022-08-19T22:38:10;3.65;;;2.70;;
17504;SDS011;8870;50.950;11.762;2022-08-19T22:43:20;2.78;;;2.40;;
17504;SDS011;8870;50.950;11.762;2022-08-19T22:48:27;3.63;;;2.45;;
17504;SDS011;8870;50.950;11.762;2022-08-19T22:53:34;4.40;;;2.88;;
17504;SDS011;8870;50.950;11.762;2022-08-19T22:58:44;3.50;;;2.88;;
17504;SDS011;8870;50.950;11.762;2022-08-19T23:03:51;4.00;;;3.35;;
17504;SDS011;8870;50.950;11.762;2022-08-19T23:08:56;4.15;;;3.33;;
17504;SDS011;8870;50.950;11.762;2022-08-19T23:14:07;3.40;;;3.10;;
17504;SDS011;8870;50.950;11.762;2022-08-19T23:19:13;3.13;;;2.80;;
17504;SDS011;8870;50.950;11.762;2022-08-19T23:24:18;5.80;;;3.20;;
17504;SDS011;8870;50.950;11.762;2022-08-19T23:29:25;3.40;;;3.10;;
17504;SDS011;8870;50.950;11.762;2022-08-19T23:34:42;3.58;;;2.97;;
17504;SDS011;8870;50.950;11.762;2022-08-19T23:39:48;3.92;;;2.75;;
17504;SDS011;8870;50.950;11.762;2022-08-19T23:44:58;4.07;;;3.20;;
17504;SDS011;8870;50.950;11.762;2022-08-19T23:50:05;3.65;;;3.10;;
17504;SDS011;8870;50.950;11.762;2022-08-19T23:55:14;3.00;;;2.70;;
